createdAt,value
2023-05-08T00:00:26.231Z,100054.31
2023-05-08T00:02:53.713Z,100043.03
2023-05-08T00:05:20.858Z,100045.88
2023-05-08T00:07:48.240Z,100052.94
2023-05-08T00:10:15.276Z,100048.69
2023-05-08T00:12:42.288Z,100044.22
2023-05-08T00:15:09.787Z,100047.69
2023-05-08T00:17:37.599Z,100035.53
2023-05-08T00:20:04.730Z,100038.44
2023-05-08T00:22:31.857Z,100040.53
2023-05-08T00:24:58.621Z,100044.50
2023-05-08T00:27:25.969Z,100037.13
2023-05-08T00:29:53.246Z,100043.66
2023-05-08T00:32:20.314Z,100039.72
2023-05-08T00:34:48.397Z,100045.78
2023-05-08T00:37:17.149Z,100042.66
2023-05-08T00:39:46.301Z,100043.69
2023-05-08T00:42:13.259Z,100035.00
2023-05-08T00:44:40.275Z,100040.28
2023-05-08T00:47:12.559Z,100046.03
2023-05-08T00:49:39.444Z,100034.25
2023-05-08T00:52:08.151Z,100043.44
2023-05-08T00:54:40.145Z,100043.50
2023-05-08T00:57:07.757Z,100054.28
2023-05-08T00:59:37.500Z,100049.78
2023-05-08T01:02:04.839Z,100053.75
2023-05-08T01:04:33.381Z,100054.50
2023-05-08T01:07:25.907Z,100061.38
2023-05-08T01:09:53.688Z,100056.63
2023-05-08T01:12:47.596Z,100058.72
2023-05-08T01:15:19.951Z,100052.69
2023-05-08T01:18:10.563Z,100056.63
2023-05-08T01:20:50.178Z,100046.94
2023-05-08T01:23:41.116Z,100050.09
2023-05-08T01:26:25.759Z,100051.97
2023-05-08T01:29:27.105Z,100058.34
2023-05-08T01:32:22.566Z,100055.19
2023-05-08T01:35:10.439Z,100058.41
2023-05-08T01:37:40.032Z,100063.38
2023-05-08T01:40:18.513Z,100071.00
2023-05-08T01:43:08.087Z,100065.22
2023-05-08T01:45:45.999Z,100068.38
2023-05-08T01:48:33.929Z,100067.34
2023-05-08T01:51:12.108Z,100071.56
2023-05-08T01:53:46.049Z,100066.31
2023-05-08T01:56:17.091Z,100071.81
2023-05-08T01:58:47.903Z,100078.63
2023-05-08T02:01:18.916Z,100077.06
2023-05-08T02:03:47.224Z,100075.47
2023-05-08T02:06:16.394Z,100074.41
2023-05-08T02:08:46.773Z,100067.59
2023-05-08T02:11:16.442Z,100074.94
2023-05-08T02:13:48.608Z,100073.91
2023-05-08T02:16:17.255Z,100074.69
2023-05-08T02:18:50.344Z,100076.53
2023-05-08T02:21:20.110Z,100068.66
2023-05-08T02:23:48.151Z,100076.78
2023-05-08T02:26:16.323Z,100070.75
2023-05-08T02:28:45.807Z,100071.53
2023-05-08T02:31:13.562Z,100071.03
2023-05-08T02:33:43.201Z,100072.59
2023-05-08T02:36:14.033Z,100075.22
2023-05-08T02:38:45.623Z,100073.91
2023-05-08T02:41:15.767Z,100072.84
2023-05-08T02:43:43.521Z,100075.47
2023-05-08T02:46:18.566Z,100076.78
2023-05-08T02:49:29.387Z,100076.00
2023-05-08T02:52:18.851Z,100079.66
2023-05-08T02:55:07.529Z,100085.19
2023-05-08T02:58:03.549Z,100085.19
2023-05-08T03:00:42.556Z,100087.78
2023-05-08T03:03:18.722Z,100086.22
2023-05-08T03:05:56.111Z,100088.06
2023-05-08T03:08:33.580Z,100090.66
2023-05-08T03:11:15.251Z,100084.63
2023-05-08T03:13:50.520Z,100086.72
2023-05-08T03:16:24.810Z,100090.16
2023-05-08T03:19:07.530Z,100091.44
2023-05-08T03:21:37.499Z,100099.31
2023-05-08T03:24:07.524Z,100090.16
2023-05-08T03:26:37.141Z,100091.72
2023-05-08T03:29:06.548Z,100090.41
2023-05-08T03:31:38.453Z,100088.84
2023-05-08T03:34:07.535Z,100097.47
2023-05-08T03:36:35.079Z,100086.97
2023-05-08T03:39:05.568Z,100088.84
2023-05-08T03:41:33.230Z,100095.63
2023-05-08T03:44:03.481Z,100093.25
2023-05-08T03:46:38.546Z,100098.50
2023-05-08T03:49:32.260Z,100091.41
2023-05-08T03:52:01.102Z,100094.59
2023-05-08T03:54:28.687Z,100096.94
2023-05-08T03:56:55.909Z,100103.47
2023-05-08T04:00:01.544Z,100093.78
2023-05-08T04:02:44.167Z,100097.19
2023-05-08T04:05:25.692Z,100101.88
2023-05-08T04:08:21.726Z,100108.16
2023-05-08T04:10:58.554Z,100102.94
2023-05-08T04:13:31.533Z,100107.63
2023-05-08T04:16:00.581Z,100098.75
2023-05-08T04:18:34.674Z,100109.22
2023-05-08T04:21:09.594Z,100116.03
2023-05-08T04:24:04.491Z,100117.59
2023-05-08T04:26:33.585Z,100118.66
2023-05-08T04:29:03.359Z,100122.06
2023-05-08T04:31:31.447Z,100119.69
2023-05-08T04:33:59.659Z,100121.28
2023-05-08T04:36:27.276Z,100131.75
2023-05-08T04:38:55.537Z,100123.06
2023-05-08T04:41:22.543Z,100125.69
2023-05-08T04:43:50.721Z,100133.56
2023-05-08T04:46:18.917Z,100133.56
2023-05-08T04:48:46.404Z,100124.66
2023-05-08T04:51:13.214Z,100129.38
2023-05-08T04:53:40.336Z,100123.63
2023-05-08T04:56:07.623Z,100133.28
2023-05-08T04:58:34.643Z,100138.00
2023-05-08T05:01:05.502Z,100135.66
2023-05-08T05:03:36.801Z,100139.88
2023-05-08T05:06:03.726Z,100146.94
2023-05-08T05:08:32.869Z,100141.69
2023-05-08T05:11:00.038Z,100145.63
2023-05-08T05:13:27.838Z,100151.38
2023-05-08T05:15:55.593Z,100150.34
2023-05-08T05:18:24.766Z,100162.66
2023-05-08T05:20:53.963Z,100150.09
2023-05-08T05:23:23.614Z,100158.47
2023-05-08T05:25:50.327Z,100150.34
2023-05-08T05:28:19.734Z,100163.97
2023-05-08T05:30:49.625Z,100159.00
2023-05-08T05:33:17.467Z,100162.69
2023-05-08T05:35:45.271Z,100169.25
2023-05-08T05:38:12.230Z,100158.50
2023-05-08T05:40:43.066Z,100169.53
2023-05-08T05:43:10.666Z,100163.75
2023-05-08T05:45:38.266Z,100163.50
2023-05-08T05:48:05.556Z,100160.59
2023-05-08T05:50:34.913Z,100160.88
2023-05-08T05:53:02.213Z,100157.72
2023-05-08T05:55:30.296Z,100170.03
2023-05-08T05:57:58.616Z,100164.56
2023-05-08T06:00:50.488Z,100170.31
2023-05-08T06:03:18.758Z,100169.00
2023-05-08T06:06:10.529Z,100164.81
2023-05-08T06:08:37.653Z,100178.75
2023-05-08T06:11:04.552Z,100161.69
2023-05-08T06:13:32.102Z,100172.19
2023-05-08T06:15:59.663Z,100175.06
2023-05-08T06:18:26.363Z,100171.38
2023-05-08T06:20:58.401Z,100175.06
2023-05-08T06:23:27.734Z,100182.16
2023-05-08T06:25:54.486Z,100178.50
2023-05-08T06:28:25.788Z,100179.00
2023-05-08T06:30:53.364Z,100183.97
2023-05-08T06:33:22.842Z,100187.91
2023-05-08T06:35:50.667Z,100189.75
2023-05-08T06:38:17.338Z,100181.38
2023-05-08T06:40:47.164Z,100188.72
2023-05-08T06:43:14.592Z,100188.44
2023-05-08T06:45:43.925Z,100189.78
2023-05-08T06:48:36.588Z,100197.91
2023-05-08T06:51:04.051Z,100192.16
2023-05-08T06:53:31.233Z,100182.97
2023-05-08T06:55:58.955Z,100185.88
2023-05-08T06:58:26.173Z,100186.66
2023-05-08T07:00:52.924Z,100187.47
2023-05-08T07:03:19.766Z,100181.97
2023-05-08T07:05:50.062Z,100175.41
2023-05-08T07:08:16.778Z,100170.69
2023-05-08T07:10:43.907Z,100182.50
2023-05-08T07:13:12.289Z,100175.16
2023-05-08T07:15:39.027Z,100184.06
2023-05-08T07:18:06.442Z,100183.56
2023-05-08T07:20:33.174Z,100180.38
2023-05-08T07:23:00.038Z,100185.13
2023-05-08T07:25:27.570Z,100188.28
2023-05-08T07:27:55.081Z,100196.94
2023-05-08T07:30:22.620Z,100195.63
2023-05-08T07:32:49.422Z,100193.00
2023-05-08T07:35:16.560Z,100198.53
2023-05-08T07:37:43.638Z,100206.41
2023-05-08T07:40:10.831Z,100209.53
2023-05-08T07:42:45.812Z,100206.63
2023-05-08T07:45:13.968Z,100203.22
2023-05-08T07:47:55.403Z,100211.09
2023-05-08T07:50:26.103Z,100207.91
2023-05-08T07:52:53.732Z,100208.94
2023-05-08T07:55:21.004Z,100209.47
2023-05-08T07:57:48.281Z,100207.34
2023-05-08T08:00:15.819Z,100207.34
2023-05-08T08:02:44.541Z,100209.69
2023-05-08T08:05:12.324Z,100197.34
2023-05-08T08:07:40.131Z,100199.44
2023-05-08T08:10:07.798Z,100206.25
2023-05-08T08:12:36.301Z,100202.03
2023-05-08T08:15:03.378Z,100202.56
2023-05-08T08:17:32.321Z,100202.00
2023-05-08T08:19:59.080Z,100200.44
2023-05-08T08:22:26.608Z,100198.59
2023-05-08T08:24:56.616Z,100201.97
2023-05-08T08:27:23.931Z,100201.91
2023-05-08T08:29:52.574Z,100196.09
2023-05-08T08:32:25.693Z,100198.16
2023-05-08T08:34:52.480Z,100186.78
2023-05-08T08:37:19.232Z,100194.34
2023-05-08T08:39:48.648Z,100193.22
2023-05-08T08:42:15.544Z,100201.09
2023-05-08T08:44:43.796Z,100196.84
2023-05-08T08:47:11.629Z,100196.03
2023-05-08T08:49:47.202Z,100188.97
2023-05-08T08:52:27.198Z,100196.88
2023-05-08T08:54:57.634Z,100199.56
2023-05-08T08:57:27.694Z,100193.00
2023-05-08T08:59:55.947Z,100193.25
2023-05-08T09:02:26.696Z,100189.75
2023-05-08T09:04:55.269Z,100203.91
2023-05-08T09:07:24.419Z,100195.41
2023-05-08T09:09:52.538Z,100201.16
2023-05-08T09:12:45.130Z,100188.25
2023-05-08T09:15:12.643Z,100194.53
2023-05-08T09:17:40.945Z,100190.03
2023-05-08T09:20:09.380Z,100192.91
2023-05-08T09:22:36.915Z,100193.38
2023-05-08T09:25:04.274Z,100194.09
2023-05-08T09:27:31.946Z,100196.41
2023-05-08T09:30:11.051Z,100196.38
2023-05-08T09:32:40.028Z,100192.59
2023-05-08T09:35:09.070Z,100190.47
2023-05-08T09:37:41.738Z,100183.88
2023-05-08T09:40:15.300Z,100180.16
2023-05-08T09:45:33.749Z,100177.84
2023-05-08T09:48:01.121Z,100180.41
2023-05-08T09:50:28.159Z,100177.66
2023-05-08T09:52:55.693Z,100170.69
2023-05-08T09:55:22.528Z,100178.47
2023-05-08T09:58:03.650Z,100174.72
2023-05-08T10:00:39.771Z,100178.09
2023-05-08T10:03:07.289Z,100170.66
2023-05-08T10:05:35.289Z,100170.66
2023-05-08T10:08:21.708Z,100164.53
2023-05-08T10:10:49.048Z,100170.84
2023-05-08T10:13:16.129Z,100165.56
2023-05-08T10:15:44.688Z,100160.50
2023-05-08T10:18:15.888Z,100164.63
2023-05-08T10:20:48.419Z,100165.06
2023-05-08T10:23:17.840Z,100157.34
2023-05-08T10:25:46.699Z,100159.44
2023-05-08T10:28:17.656Z,100139.31
2023-05-08T10:30:49.402Z,100149.84
2023-05-08T10:33:21.676Z,100144.69
2023-05-08T10:35:48.968Z,100135.84
2023-05-08T10:38:17.232Z,100135.75
2023-05-08T10:40:45.167Z,100131.69
2023-05-08T10:43:12.612Z,100123.88
2023-05-08T10:45:40.721Z,100132.22
2023-05-08T10:48:28.081Z,100123.78
2023-05-08T10:51:10.803Z,100123.31
2023-05-08T10:53:48.151Z,100112.09
2023-05-08T10:56:16.738Z,100111.41
2023-05-08T10:58:44.101Z,100110.75
2023-05-08T11:01:12.724Z,100109.88
2023-05-08T11:03:47.783Z,100105.38
2023-05-08T11:06:15.013Z,100097.38
2023-05-08T11:08:52.180Z,100107.06
2023-05-08T11:11:27.710Z,100105.06
2023-05-08T11:14:06.892Z,100100.88
2023-05-08T11:16:56.089Z,100104.50
2023-05-08T11:19:24.898Z,100103.00
2023-05-08T11:22:13.247Z,100102.75
2023-05-08T11:24:55.153Z,100095.00
2023-05-08T11:27:54.674Z,100093.81
2023-05-08T11:30:33.325Z,100087.16
2023-05-08T11:33:04.707Z,100088.31
2023-05-08T11:35:48.501Z,100091.53
2023-05-08T11:38:33.803Z,100088.41
2023-05-08T11:41:07.239Z,100082.72
2023-05-08T11:43:47.757Z,100078.97
2023-05-08T11:46:16.814Z,100087.38
2023-05-08T11:49:16.768Z,100079.44
2023-05-08T11:51:46.585Z,100079.63
2023-05-08T11:54:15.783Z,100076.38
2023-05-08T11:56:42.741Z,100078.25
2023-05-08T11:59:10.701Z,100070.50
2023-05-08T12:01:37.569Z,100074.09
2023-05-08T12:04:08.686Z,100072.13
2023-05-08T12:06:40.599Z,100070.34
2023-05-08T12:09:13.149Z,100061.78
2023-05-08T12:11:48.787Z,100064.00
2023-05-08T12:14:18.114Z,100065.44
2023-05-08T12:16:44.900Z,100069.72
2023-05-08T12:19:14.774Z,100068.97
2023-05-08T12:21:48.267Z,100064.16
2023-05-08T12:24:17.692Z,100070.09
2023-05-08T12:26:44.479Z,100064.97
2023-05-08T12:29:11.297Z,100073.94
2023-05-08T12:31:38.952Z,100061.94
2023-05-08T12:34:06.493Z,100060.25
2023-05-08T12:36:37.519Z,100064.91
2023-05-08T12:39:16.312Z,100059.53
2023-05-08T12:42:08.692Z,100067.03
2023-05-08T12:44:36.164Z,100059.53
2023-05-08T12:47:28.739Z,100055.34
2023-05-08T12:49:58.221Z,100050.53
2023-05-08T12:52:25.742Z,100050.22
2023-05-08T12:54:52.473Z,100050.69
2023-05-08T12:57:44.694Z,100047.44
2023-05-08T13:00:16.796Z,100046.00
2023-05-08T13:02:54.667Z,100047.13
2023-05-08T13:05:23.485Z,100041.81
2023-05-08T13:07:51.569Z,100041.03
2023-05-08T13:10:21.404Z,100039.94
2023-05-08T13:12:53.250Z,100040.25
2023-05-08T13:15:20.686Z,100034.63
2023-05-08T13:17:48.376Z,100018.28
2023-05-08T13:20:15.187Z,100018.13
2023-05-08T13:22:42.276Z,100015.03
2023-05-08T13:25:09.523Z,100014.88
2023-05-08T13:30:27.813Z,100006.00
2023-05-08T13:32:54.916Z,100011.63
2023-05-08T13:35:22.512Z,100008.19
2023-05-08T13:37:49.658Z,100001.19
2023-05-08T13:40:18.091Z,100001.19
2023-05-08T13:42:44.821Z,99998.84
2023-05-08T13:45:15.252Z,99994.59
2023-05-08T13:47:42.607Z,99990.38
2023-05-08T13:50:10.480Z,100001.78
2023-05-08T13:52:38.396Z,99998.81
2023-05-08T13:55:10.488Z,99993.97
2023-05-08T13:57:39.732Z,99989.44
2023-05-08T14:00:07.658Z,99983.81
2023-05-08T14:02:35.124Z,99983.06
2023-05-08T14:05:03.696Z,99988.34
2023-05-08T14:07:30.683Z,99983.50
2023-05-08T14:09:59.768Z,99985.22
2023-05-08T14:12:28.814Z,99995.84
2023-05-08T14:14:56.714Z,99985.56
2023-05-08T14:17:23.962Z,99987.28
2023-05-08T14:19:54.182Z,99989.94
2023-05-08T14:22:21.003Z,99984.31
2023-05-08T14:27:40.691Z,99990.06
2023-05-08T14:30:08.044Z,99992.09
2023-05-08T14:32:38.743Z,99991.16
2023-05-08T14:35:05.794Z,99987.72
2023-05-08T14:37:57.678Z,99986.97
2023-05-08T14:40:25.110Z,99993.81
2023-05-08T14:42:52.099Z,100000.84
2023-05-08T14:45:18.880Z,99995.84
2023-05-08T14:47:46.298Z,99989.28
2023-05-08T14:50:13.152Z,99985.53
2023-05-08T14:52:39.975Z,99995.69
2023-05-08T14:55:07.706Z,99990.97
2023-05-08T15:00:26.718Z,99985.22
2023-05-08T15:02:54.346Z,99987.88
2023-05-08T15:05:21.673Z,99983.34
2023-05-08T15:07:48.861Z,99984.44
2023-05-08T15:10:17.284Z,99977.44
2023-05-08T15:12:44.219Z,99984.31
2023-05-08T15:15:11.404Z,99987.09
2023-05-08T15:17:38.413Z,99983.34
2023-05-08T15:20:06.866Z,99983.03
2023-05-08T15:22:34.164Z,99981.31
2023-05-08T15:25:00.958Z,99980.06
2023-05-08T15:27:31.971Z,99989.09
2023-05-08T15:29:59.732Z,99986.09
2023-05-08T15:32:30.720Z,99979.06
2023-05-08T15:34:59.049Z,99974.84
2023-05-08T15:37:26.336Z,99971.88
2023-05-08T15:39:53.238Z,99971.22
2023-05-08T15:42:20.140Z,99966.06
2023-05-08T15:47:17.196Z,99970.88
2023-05-08T15:50:10.709Z,99974.00
2023-05-08T15:53:02.457Z,99975.56
2023-05-08T15:55:32.688Z,99966.03
2023-05-08T15:58:00.131Z,99964.16
2023-05-08T16:00:33.333Z,99958.53
2023-05-08T16:03:08.851Z,99959.28
2023-05-08T16:05:36.124Z,99957.13
2023-05-08T16:08:04.891Z,99962.56
2023-05-08T16:10:32.003Z,99961.31
2023-05-08T16:12:59.110Z,99962.91
2023-05-08T16:15:26.853Z,99959.28
2023-05-08T16:17:55.126Z,99956.09
2023-05-08T16:20:22.554Z,99958.75
2023-05-08T16:22:53.895Z,99956.28
2023-05-08T16:25:20.984Z,99948.31
2023-05-08T16:27:47.712Z,99959.59
2023-05-08T16:30:14.834Z,99956.91
2023-05-08T16:32:41.610Z,99945.16
2023-05-08T16:35:08.812Z,99954.28
2023-05-08T16:37:37.669Z,99963.06
2023-05-08T16:40:05.676Z,99967.19
2023-05-08T16:42:32.863Z,99962.28
2023-05-08T16:45:00.397Z,99963.63
2023-05-08T16:47:27.194Z,99962.88
2023-05-08T16:49:54.231Z,99971.50
2023-05-08T16:52:21.113Z,99966.78
2023-05-08T16:54:48.109Z,99970.03
2023-05-08T16:57:14.940Z,99970.72
2023-05-08T17:00:07.209Z,99973.28
2023-05-08T17:02:35.374Z,99979.09
2023-05-08T17:05:03.121Z,99979.13
2023-05-08T17:07:30.953Z,99982.97
2023-05-08T17:09:59.804Z,99973.75
2023-05-08T17:12:26.550Z,99973.78
2023-05-08T17:14:53.866Z,99977.09
2023-05-08T17:17:21.133Z,99978.34
2023-05-08T17:19:47.898Z,99974.47
2023-05-08T17:22:15.679Z,99971.34
2023-05-08T17:24:42.411Z,99973.88
2023-05-08T17:27:10.191Z,99982.13
2023-05-08T17:29:37.111Z,99978.13
2023-05-08T17:32:04.176Z,99978.63
2023-05-08T17:34:31.077Z,99985.66
2023-05-08T17:36:57.866Z,99986.72
2023-05-08T17:39:24.938Z,99990.00
2023-05-08T17:41:51.667Z,99984.56
2023-05-08T17:44:18.853Z,99992.38
2023-05-08T17:46:45.702Z,99989.91
2023-05-08T17:49:12.704Z,99990.53
2023-05-08T17:51:39.455Z,100002.25
2023-05-08T17:54:06.298Z,100002.25
2023-05-08T17:56:33.177Z,100003.34
2023-05-08T17:59:00.807Z,100006.31
2023-05-08T18:01:27.635Z,100014.88
2023-05-08T18:03:54.554Z,100014.88
2023-05-08T18:06:22.117Z,100014.09
2023-05-08T18:08:48.973Z,100025.66
2023-05-08T18:11:23.995Z,100027.06
2023-05-08T18:13:52.796Z,100029.13
2023-05-08T18:16:20.766Z,100035.50
2023-05-08T18:18:48.654Z,100041.09
2023-05-08T18:21:15.584Z,100035.81
2023-05-08T18:23:42.531Z,100041.72
2023-05-08T18:26:14.448Z,100044.06
2023-05-08T18:28:41.342Z,100041.09
2023-05-08T18:31:08.365Z,100038.09
2023-05-08T18:33:35.243Z,100046.50
2023-05-08T18:36:02.050Z,100052.75
2023-05-08T18:38:32.789Z,100058.81
2023-05-08T18:41:03.017Z,100050.38
2023-05-08T18:43:55.221Z,100055.66
2023-05-08T18:46:22.454Z,100058.44
2023-05-08T18:48:49.499Z,100072.69
2023-05-08T18:51:16.952Z,100062.56
2023-05-08T18:53:43.924Z,100068.63
2023-05-08T18:56:11.049Z,100068.91
2023-05-08T18:58:38.763Z,100080.75
2023-05-08T19:01:07.049Z,100077.44
2023-05-08T19:03:34.844Z,100080.41
2023-05-08T19:06:01.863Z,100086.13
2023-05-08T19:08:29.024Z,100087.00
2023-05-08T19:10:56.029Z,100091.19
2023-05-08T19:13:26.184Z,100096.66
2023-05-08T19:15:53.851Z,100104.13
2023-05-08T19:18:20.912Z,100105.34
2023-05-08T19:20:48.335Z,100098.16
2023-05-08T19:23:15.768Z,100104.56
2023-05-08T19:25:42.874Z,100095.75
2023-05-08T19:28:10.155Z,100108.44
2023-05-08T19:30:37.459Z,100112.91
2023-05-08T19:33:04.303Z,100108.22
2023-05-08T19:35:32.481Z,100112.81
2023-05-08T19:37:59.509Z,100110.78
2023-05-08T19:40:26.720Z,100113.72
2023-05-08T19:42:53.849Z,100113.81
2023-05-08T19:45:20.709Z,100117.28
2023-05-08T19:47:49.971Z,100117.66
2023-05-08T19:50:16.807Z,100120.47
2023-05-08T19:52:46.266Z,100112.75
2023-05-08T19:55:14.131Z,100116.91
2023-05-08T19:57:41.062Z,100120.53
2023-05-08T20:00:08.812Z,100123.06
2023-05-08T20:02:37.914Z,100115.91
2023-05-08T20:05:21.695Z,100118.88
2023-05-08T20:07:50.214Z,100120.94
2023-05-08T20:10:17.128Z,100117.56
2023-05-08T20:12:45.894Z,100114.75
2023-05-08T20:15:12.834Z,100114.09
2023-05-08T20:17:39.708Z,100119.44
2023-05-08T20:20:07.205Z,100119.66
2023-05-08T20:22:34.182Z,100113.97
2023-05-08T20:25:05.031Z,100117.69
2023-05-08T20:27:31.987Z,100123.00
2023-05-08T20:29:58.743Z,100120.47
2023-05-08T20:32:29.327Z,100112.91
2023-05-08T20:34:56.136Z,100127.47
2023-05-08T20:37:25.802Z,100127.00
2023-05-08T20:39:52.679Z,100121.03
2023-05-08T20:42:19.467Z,100122.59
2023-05-08T20:44:48.818Z,100113.41
2023-05-08T20:47:17.461Z,100120.81
2023-05-08T20:49:44.238Z,100117.00
2023-05-08T20:52:11.274Z,100114.94
2023-05-08T20:54:39.391Z,100122.59
2023-05-08T20:57:06.171Z,100119.72
2023-05-08T20:59:33.199Z,100119.53
2023-05-08T21:02:00.158Z,100116.69
2023-05-08T21:04:27.165Z,100124.91
2023-05-08T21:06:55.881Z,100119.94
2023-05-08T21:09:22.776Z,100122.56
2023-05-08T21:11:51.824Z,100123.56
2023-05-08T21:14:25.798Z,100130.19
2023-05-08T21:16:54.374Z,100123.41
2023-05-08T21:19:22.366Z,100122.16
2023-05-08T21:21:49.783Z,100119.13
2023-05-08T21:24:17.209Z,100121.56
2023-05-08T21:26:45.852Z,100118.91
2023-05-08T21:29:13.209Z,100127.88
2023-05-08T21:31:43.366Z,100121.03
2023-05-08T21:34:11.799Z,100123.97
2023-05-08T21:36:38.637Z,100123.47
2023-05-08T21:39:30.918Z,100125.59
2023-05-08T21:41:59.276Z,100116.22
2023-05-08T21:47:19.807Z,100112.19
2023-05-08T21:49:46.523Z,100115.59
2023-05-08T21:52:15.161Z,100117.25
2023-05-08T21:54:41.869Z,100121.81
2023-05-08T21:57:10.444Z,100121.38
2023-05-08T21:59:38.789Z,100115.03
2023-05-08T22:02:06.424Z,100122.16
2023-05-08T22:04:34.481Z,100119.03
2023-05-08T22:07:03.312Z,100121.16
2023-05-08T22:09:30.286Z,100119.66
2023-05-08T22:11:57.790Z,100126.78
2023-05-08T22:14:24.601Z,100126.88
2023-05-08T22:16:51.319Z,100126.16
2023-05-08T22:19:19.798Z,100130.94
2023-05-08T22:21:46.686Z,100125.66
2023-05-08T22:24:13.863Z,100125.38
2023-05-08T22:26:40.733Z,100126.50
2023-05-08T22:29:07.682Z,100129.78
2023-05-08T22:31:36.549Z,100122.28
2023-05-08T22:34:03.398Z,100131.53
2023-05-08T22:36:30.107Z,100130.00
2023-05-08T22:38:57.805Z,100131.66
2023-05-08T22:41:24.511Z,100133.22
2023-05-08T22:43:52.927Z,100130.09
2023-05-08T22:46:19.780Z,100136.44
2023-05-08T22:48:46.804Z,100129.03
2023-05-08T22:51:17.868Z,100126.41
2023-05-08T22:53:44.890Z,100132.19
2023-05-08T22:56:12.906Z,100122.19
2023-05-08T22:58:41.237Z,100120.63
2023-05-08T23:01:08.048Z,100126.47
2023-05-08T23:03:35.832Z,100122.53
2023-05-08T23:06:02.547Z,100126.47
2023-05-08T23:08:29.318Z,100130.94
2023-05-08T23:10:56.821Z,100130.16
2023-05-08T23:13:23.600Z,100125.84
2023-05-08T23:15:54.849Z,100124.69
2023-05-08T23:18:22.360Z,100119.69
2023-05-08T23:20:50.024Z,100118.69
2023-05-08T23:23:17.280Z,100115.19
2023-05-08T23:25:44.228Z,100114.16
2023-05-08T23:28:10.976Z,100110.69
2023-05-08T23:30:38.506Z,100110.44
2023-05-08T23:33:08.890Z,100108.44
2023-05-08T23:35:35.651Z,100113.97
2023-05-08T23:38:02.568Z,100112.41
2023-05-08T23:40:29.839Z,100111.06
2023-05-08T23:42:57.280Z,100121.53
2023-05-08T23:45:25.880Z,100109.25
2023-05-08T23:47:54.475Z,100107.47
2023-05-08T23:50:21.346Z,100103.78
2023-05-08T23:52:49.884Z,100096.44
2023-05-08T23:55:16.869Z,100100.91
2023-05-08T23:57:44.396Z,100089.66
